This is the latest recevied weather packets stored in our database for station/object DM4XI-13. If no packets are shown the sender has not sent any weather packets the latest 10 day(s).
| Time | Temp. | Humidity | Pressure | Rain* | Wind** | Luminosity | Snow |
|---|---|---|---|---|---|---|---|
| 1777375092 | 18.89° C | 30% | 1016.9 hPa | 0 mm | 2.24 m/s, 21° | 649 W/m² | - |
| 1777375031 | 18.89° C | 31% | 1016.8 hPa | 0 mm | 1.79 m/s, 193° | 650 W/m² | - |
| 1777374970 | 18.89° C | 34% | 1016.5 hPa | 0 mm | 0.45 m/s, 124° | 649 W/m² | - |
| 1777374910 | 18.89° C | 30% | 1016.8 hPa | 0 mm | 0.89 m/s, 16° | 648 W/m² | - |
| 1777374848 | 18.89° C | 30% | 1016.7 hPa | 0 mm | 1.79 m/s, 264° | 649 W/m² | - |
| 1777374788 | 18.89° C | 30% | 1016.9 hPa | 0 mm | 3.13 m/s, 4° | 649 W/m² | - |
| 1777374727 | 18.89° C | 30% | 1016.9 hPa | 0 mm | 1.79 m/s, 27° | 642 W/m² | - |
| 1777374665 | 18.89° C | 32% | 1016.9 hPa | 0 mm | 1.79 m/s, 347° | 637 W/m² | - |
| 1777374604 | 18.89° C | 33% | 1016.6 hPa | 0 mm | 0.45 m/s, 86° | 635 W/m² | - |
| 1777374543 | 18.89° C | 31% | 1017 hPa | 0 mm | 1.79 m/s, 341° | 634 W/m² | - |
| 1777374482 | 18.89° C | 30% | 1016.8 hPa | 0 mm | 1.79 m/s, 12° | 633 W/m² | - |
| 1777374421 | 18.89° C | 30% | 1016.8 hPa | 0 mm | 1.34 m/s, 349° | 632 W/m² | - |
| 1777374360 | 18.89° C | 30% | 1016.9 hPa | 0 mm | 1.79 m/s, 323° | 631 W/m² | - |
| 1777374299 | 18.89° C | 32% | 1016.8 hPa | 0 mm | 0.89 m/s, 337° | 630 W/m² | - |
| 1777374239 | 18.89° C | 32% | 1016.8 hPa | 0 mm | 0.89 m/s, 94° | 630 W/m² | - |
| 1777374178 | 18.89° C | 32% | 1017.1 hPa | 0 mm | 2.68 m/s, 134° | 630 W/m² | - |
| 1777374117 | 18.89° C | 32% | 1017 hPa | 0 mm | 0.89 m/s, 188° | 627 W/m² | - |
| 1777374056 | 18.89° C | 32% | 1017 hPa | 0 mm | 1.34 m/s, 51° | 629 W/m² | - |
| 1777373995 | 18.89° C | 31% | 1016.9 hPa | 0 mm | 1.79 m/s, 117° | 627 W/m² | - |
| 1777373934 | 18.89° C | 31% | 1016.9 hPa | 0 mm | 2.68 m/s, 8° | 626 W/m² | - |
| 1777373873 | 18.89° C | 31% | 1016.8 hPa | 0 mm | 1.34 m/s, 158° | 624 W/m² | - |
| 1777373812 | 18.89° C | 32% | 1017 hPa | 0 mm | 1.79 m/s, 39° | 625 W/m² | - |
| 1777373751 | 18.33° C | 33% | 1017 hPa | 0 mm | 0 m/s | 624 W/m² | - |
| 1777373690 | 18.33° C | 32% | 1016.9 hPa | 0 mm | 0.89 m/s, 99° | 624 W/m² | - |
| 1777373628 | 18.33° C | 32% | 1017 hPa | 0 mm | 0.89 m/s, 165° | 624 W/m² | - |
* Rain latest hour (hover to see other rain measurements)
** Current wind speed in m/s (hover to see current wind gust speed)